Time;durP1;ratioP1;P1;durP2;ratioP2;P2;SDS_P1;SDS_P2;PMS_P1;PMS_P2;Temp;Humidity;BMP_temperature;BMP_pressure;BME280_temperature;BME280_humidity;BME280_pressure;Samples;Min_cycle;Max_cycle;Signal;HPM_P1;HPM_P2
2022/08/24 00:00:13;;;;;;;;;;;22.10;55.20;;;;;;5130030;27;19919;-66
2022/08/24 00:02:40;;;;;;;;;;;22.20;55.00;;;;;;5131412;27;19927;-66
2022/08/24 00:05:08;;;;;;;;;;;22.20;55.10;;;;;;5141928;27;19923;-66
2022/08/24 00:07:35;;;;;;;;;;;22.20;55.20;;;;;;5132897;27;19919;-66
2022/08/24 00:10:04;;;;;;;;;;;22.10;55.30;;;;;;5131802;27;19919;-66
2022/08/24 00:12:31;;;;;;;;;;;22.10;55.60;;;;;;5123737;27;19926;-66
2022/08/24 00:14:59;;;;;;;;;;;22.10;55.60;;;;;;5133085;27;20661;-66
2022/08/24 00:17:25;;;;;;;;;;;22.10;55.70;;;;;;5123215;27;19919;-66
2022/08/24 00:19:53;;;;;;;;;;;22.10;55.60;;;;;;5124987;27;19920;-66
2022/08/24 00:22:19;;;;;;;;;;;22.10;55.90;;;;;;5116621;27;19930;-65
2022/08/24 00:24:46;;;;;;;;;;;22.00;56.00;;;;;;5129850;27;19919;-66
2022/08/24 00:27:14;;;;;;;;;;;22.10;56.00;;;;;;5130271;27;19931;-66
2022/08/24 00:29:41;;;;;;;;;;;21.90;56.30;;;;;;5130735;27;19919;-66
2022/08/24 00:32:08;;;;;;;;;;;21.90;56.60;;;;;;5122595;27;19919;-65
2022/08/24 00:34:35;;;;;;;;;;;21.90;56.60;;;;;;5131220;27;19953;-66
2022/08/24 00:37:02;;;;;;;;;;;21.90;56.70;;;;;;5131775;27;19919;-66
2022/08/24 00:39:28;;;;;;;;;;;21.80;56.70;;;;;;5131831;27;19926;-64
2022/08/24 00:41:55;;;;;;;;;;;21.80;56.80;;;;;;5131750;27;19919;-66
2022/08/24 00:44:23;;;;;;;;;;;21.80;57.00;;;;;;5130105;27;19927;-66
2022/08/24 00:46:53;;;;;;;;;;;21.80;57.10;;;;;;5130993;27;20022;-66
2022/08/24 00:49:22;;;;;;;;;;;21.80;57.00;;;;;;5131826;27;19923;-66
2022/08/24 00:51:54;;;;;;;;;;;21.70;57.30;;;;;;5126477;27;19971;-65
2022/08/24 00:54:22;;;;;;;;;;;21.70;57.40;;;;;;5124289;27;19926;-67
2022/08/24 00:56:51;;;;;;;;;;;21.70;57.30;;;;;;5128135;27;19979;-66
2022/08/24 00:59:20;;;;;;;;;;;21.70;57.50;;;;;;5126837;27;19919;-65
2022/08/24 01:01:49;;;;;;;;;;;21.60;57.70;;;;;;5120860;27;19968;-66
2022/08/24 01:04:18;;;;;;;;;;;21.60;58.00;;;;;;5131786;27;19920;-66
2022/08/24 01:06:45;;;;;;;;;;;21.60;58.10;;;;;;5132284;27;19933;-66
2022/08/24 01:09:12;;;;;;;;;;;21.60;58.30;;;;;;5131981;27;19920;-66
2022/08/24 01:11:39;;;;;;;;;;;21.60;58.20;;;;;;5129060;27;19926;-66
2022/08/24 01:14:06;;;;;;;;;;;21.50;58.20;;;;;;5128984;27;19927;-67
2022/08/24 01:19:28;;;;;;;;;;;21.40;58.80;;;;;;5111476;27;19930;-66
2022/08/24 01:22:02;;;;;;;;;;;21.40;58.90;;;;;;5129632;27;19927;-66
2022/08/24 01:24:30;;;;;;;;;;;21.40;58.90;;;;;;5126514;27;20006;-66
2022/08/24 01:26:57;;;;;;;;;;;21.30;59.20;;;;;;5128043;27;20218;-66
2022/08/24 01:29:26;;;;;;;;;;;21.30;59.30;;;;;;5125495;27;19919;-67
2022/08/24 01:31:53;;;;;;;;;;;21.30;59.00;;;;;;5129591;27;20340;-66
2022/08/24 01:34:20;;;;;;;;;;;21.30;59.00;;;;;;5135374;27;19923;-66
2022/08/24 01:36:53;;;;;;;;;;;21.30;59.50;;;;;;5141592;27;19919;-65
2022/08/24 01:39:22;;;;;;;;;;;21.20;59.50;;;;;;5144715;27;20354;-66
2022/08/24 01:41:50;;;;;;;;;;;21.30;59.70;;;;;;5129610;27;20374;-66
2022/08/24 01:44:17;;;;;;;;;;;21.20;59.80;;;;;;5127701;27;20352;-66
2022/08/24 01:46:44;;;;;;;;;;;21.20;59.60;;;;;;5134851;27;19927;-66
2022/08/24 01:49:12;;;;;;;;;;;21.20;59.50;;;;;;5129530;27;20326;-66
2022/08/24 01:51:39;;;;;;;;;;;21.30;59.70;;;;;;5130624;27;19919;-66
2022/08/24 01:54:05;;;;;;;;;;;21.10;60.10;;;;;;5130019;28;19919;-66
2022/08/24 01:56:33;;;;;;;;;;;21.10;60.10;;;;;;5124834;27;19919;-67
2022/08/24 01:59:01;;;;;;;;;;;21.10;60.30;;;;;;5129760;27;20388;-67
2022/08/24 02:01:29;;;;;;;;;;;21.10;60.50;;;;;;5126601;28;19923;-66
2022/08/24 02:03:58;;;;;;;;;;;21.10;60.50;;;;;;5124744;27;19969;-66
2022/08/24 02:06:26;;;;;;;;;;;21.10;60.50;;;;;;5125743;27;19919;-66
2022/08/24 02:08:54;;;;;;;;;;;21.00;60.60;;;;;;5128599;27;19927;-66
2022/08/24 02:11:21;;;;;;;;;;;21.00;60.90;;;;;;5132926;27;20037;-67
2022/08/24 02:13:48;;;;;;;;;;;21.00;60.90;;;;;;5124891;27;19930;-65
2022/08/24 02:16:16;;;;;;;;;;;21.00;60.90;;;;;;5132924;27;19920;-66
2022/08/24 02:18:43;;;;;;;;;;;20.90;61.10;;;;;;5132742;27;20027;-66
2022/08/24 02:21:11;;;;;;;;;;;20.90;61.00;;;;;;5133164;27;19919;-66
2022/08/24 02:23:38;;;;;;;;;;;20.90;61.10;;;;;;5117097;27;19920;-67
2022/08/24 02:26:07;;;;;;;;;;;20.80;61.40;;;;;;5134795;27;19927;-66
2022/08/24 02:28:34;;;;;;;;;;;20.80;61.50;;;;;;5131065;27;19933;-66
2022/08/24 02:31:04;;;;;;;;;;;20.80;61.40;;;;;;5127894;27;19927;-66
2022/08/24 02:33:33;;;;;;;;;;;20.80;61.60;;;;;;5131738;27;19951;-67
2022/08/24 02:36:00;;;;;;;;;;;20.90;61.50;;;;;;5133849;27;20495;-67
2022/08/24 02:38:27;;;;;;;;;;;20.70;61.70;;;;;;5132288;27;19926;-67
2022/08/24 02:40:54;;;;;;;;;;;20.70;61.90;;;;;;5131076;27;19923;-66
2022/08/24 02:43:21;;;;;;;;;;;20.70;61.80;;;;;;5135157;27;20018;-66
2022/08/24 02:45:47;;;;;;;;;;;20.60;62.00;;;;;;5133283;27;19933;-66
2022/08/24 02:48:15;;;;;;;;;;;20.60;62.50;;;;;;5132068;27;20447;-66
2022/08/24 02:50:44;;;;;;;;;;;20.60;62.30;;;;;;5133103;27;20360;-67
2022/08/24 02:53:13;;;;;;;;;;;20.60;62.10;;;;;;5130224;27;20134;-66
2022/08/24 02:55:40;;;;;;;;;;;20.60;62.00;;;;;;5119827;27;19947;-66
2022/08/24 02:58:09;;;;;;;;;;;20.60;62.20;;;;;;5131047;27;19919;-67
2022/08/24 03:00:37;;;;;;;;;;;20.60;62.10;;;;;;5129486;27;19963;-67
2022/08/24 03:03:05;;;;;;;;;;;20.60;62.00;;;;;;5126859;27;20146;-66
2022/08/24 03:05:32;;;;;;;;;;;20.60;62.50;;;;;;5132911;27;19926;-67
2022/08/24 03:08:00;;;;;;;;;;;20.60;62.60;;;;;;5130481;27;19957;-66
2022/08/24 03:10:29;;;;;;;;;;;20.50;62.60;;;;;;5148590;27;20005;-66
2022/08/24 03:12:56;;;;;;;;;;;20.50;62.70;;;;;;5129795;27;19919;-67
2022/08/24 03:15:23;;;;;;;;;;;20.50;62.90;;;;;;5128604;27;19924;-66
2022/08/24 03:17:51;;;;;;;;;;;20.50;62.90;;;;;;5134202;27;19965;-67
2022/08/24 03:20:19;;;;;;;;;;;20.50;62.80;;;;;;5132421;27;20361;-66
2022/08/24 03:22:46;;;;;;;;;;;20.40;62.90;;;;;;5130804;27;19923;-66
2022/08/24 03:25:14;;;;;;;;;;;20.40;63.10;;;;;;5130820;27;19983;-66
2022/08/24 03:27:42;;;;;;;;;;;20.30;63.50;;;;;;5132344;27;19923;-67
2022/08/24 03:30:12;;;;;;;;;;;20.30;63.50;;;;;;5130364;27;20300;-65
2022/08/24 03:32:40;;;;;;;;;;;20.20;63.70;;;;;;5129946;27;19923;-66
2022/08/24 03:35:07;;;;;;;;;;;20.10;64.00;;;;;;5130520;27;19920;-66
2022/08/24 03:37:35;;;;;;;;;;;20.20;63.90;;;;;;5137085;27;19929;-65
2022/08/24 03:40:05;;;;;;;;;;;20.20;63.90;;;;;;5128294;27;19923;-66
2022/08/24 03:42:33;;;;;;;;;;;20.20;63.80;;;;;;5131561;27;19927;-66
2022/08/24 03:45:00;;;;;;;;;;;20.20;63.90;;;;;;5132638;27;19919;-66
2022/08/24 03:47:26;;;;;;;;;;;20.10;64.10;;;;;;5125472;27;19930;-66
2022/08/24 03:49:55;;;;;;;;;;;20.10;64.40;;;;;;5126279;27;19976;-67
2022/08/24 03:52:22;;;;;;;;;;;20.00;64.40;;;;;;5131718;27;19976;-66
2022/08/24 03:54:51;;;;;;;;;;;20.10;64.30;;;;;;5132627;27;19919;-66
2022/08/24 03:57:17;;;;;;;;;;;20.00;64.50;;;;;;5132294;27;20319;-66
2022/08/24 03:59:45;;;;;;;;;;;20.00;64.60;;;;;;5130971;27;20507;-66
2022/08/24 04:02:13;;;;;;;;;;;19.90;64.70;;;;;;5122661;27;19919;-66
2022/08/24 04:04:40;;;;;;;;;;;19.80;64.80;;;;;;5130034;27;19920;-66
2022/08/24 04:07:06;;;;;;;;;;;19.90;64.70;;;;;;5123672;27;19919;-65
2022/08/24 04:09:33;;;;;;;;;;;19.80;65.00;;;;;;5124869;27;19928;-65
2022/08/24 04:12:00;;;;;;;;;;;19.70;65.10;;;;;;5129272;27;19926;-66
2022/08/24 04:14:26;;;;;;;;;;;19.70;65.20;;;;;;5131901;27;19950;-66
2022/08/24 04:16:59;;;;;;;;;;;19.70;65.30;;;;;;5131821;27;20373;-65
2022/08/24 04:19:33;;;;;;;;;;;19.70;65.30;;;;;;5130491;27;20149;-66
2022/08/24 04:22:00;;;;;;;;;;;19.60;65.50;;;;;;5131880;27;19925;-66
2022/08/24 04:24:26;;;;;;;;;;;19.60;65.60;;;;;;5130021;27;19920;-66
2022/08/24 04:26:53;;;;;;;;;;;19.60;65.50;;;;;;5131550;27;19927;-67
2022/08/24 04:29:20;;;;;;;;;;;19.60;65.60;;;;;;5131155;27;19970;-66
2022/08/24 04:31:52;;;;;;;;;;;19.60;65.70;;;;;;5129043;27;20014;-67
2022/08/24 04:34:21;;;;;;;;;;;19.60;65.80;;;;;;5130104;27;19930;-66
2022/08/24 04:36:48;;;;;;;;;;;19.60;65.90;;;;;;5128182;27;20010;-65
2022/08/24 04:39:15;;;;;;;;;;;19.50;66.00;;;;;;5130999;27;19923;-65
2022/08/24 04:41:59;;;;;;;;;;;19.50;66.10;;;;;;5124113;27;20022;-66
2022/08/24 04:44:28;;;;;;;;;;;19.50;66.20;;;;;;5131057;27;19925;-66
2022/08/24 04:46:55;;;;;;;;;;;19.40;66.40;;;;;;5129194;27;19931;-67
2022/08/24 04:49:23;;;;;;;;;;;19.40;66.50;;;;;;5123972;27;19964;-65
2022/08/24 04:51:50;;;;;;;;;;;19.40;66.60;;;;;;5131595;27;19920;-66
2022/08/24 04:54:17;;;;;;;;;;;19.40;66.60;;;;;;5129265;27;19996;-67
2022/08/24 04:56:51;;;;;;;;;;;19.40;66.50;;;;;;5131348;27;20227;-65
2022/08/24 04:59:18;;;;;;;;;;;19.40;66.50;;;;;;5129337;27;20371;-67
2022/08/24 05:01:45;;;;;;;;;;;19.40;66.50;;;;;;5121298;27;19931;-65
2022/08/24 05:04:12;;;;;;;;;;;19.40;66.60;;;;;;5131587;27;19919;-67
2022/08/24 05:06:41;;;;;;;;;;;19.40;66.70;;;;;;5129645;27;20350;-67
2022/08/24 05:09:09;;;;;;;;;;;19.40;66.70;;;;;;5131526;27;20437;-66
2022/08/24 05:11:39;;;;;;;;;;;19.40;66.70;;;;;;5128172;27;19930;-66
2022/08/24 05:14:06;;;;;;;;;;;19.40;66.70;;;;;;5126060;27;19923;-66
2022/08/24 05:16:34;;;;;;;;;;;19.40;66.90;;;;;;5121741;27;19928;-65
2022/08/24 05:19:01;;;;;;;;;;;19.40;66.80;;;;;;5129758;27;19992;-66
2022/08/24 05:21:29;;;;;;;;;;;19.50;66.80;;;;;;5130032;27;20010;-66
2022/08/24 05:23:58;;;;;;;;;;;19.50;66.90;;;;;;5125674;27;19955;-66
2022/08/24 05:26:29;;;;;;;;;;;19.40;67.20;;;;;;5127694;27;19926;-66
2022/08/24 05:28:57;;;;;;;;;;;19.50;67.00;;;;;;5126237;27;19920;-66
2022/08/24 05:31:27;;;;;;;;;;;19.50;67.00;;;;;;5125578;27;19930;-65
2022/08/24 05:33:55;;;;;;;;;;;19.50;67.00;;;;;;5129025;27;20009;-65
2022/08/24 05:36:24;;;;;;;;;;;19.50;67.00;;;;;;5126108;27;20289;-65
2022/08/24 05:38:52;;;;;;;;;;;19.60;66.90;;;;;;5129907;27;19919;-66
2022/08/24 05:41:20;;;;;;;;;;;19.60;66.90;;;;;;5130401;27;19920;-66
2022/08/24 05:43:54;;;;;;;;;;;19.60;66.90;;;;;;5127466;27;19977;-67
2022/08/24 05:46:21;;;;;;;;;;;19.60;66.80;;;;;;5121545;27;20024;-66
2022/08/24 05:48:47;;;;;;;;;;;19.60;66.80;;;;;;5125386;27;20007;-64
2022/08/24 05:51:23;;;;;;;;;;;19.60;66.80;;;;;;5129518;27;19926;-66
2022/08/24 05:53:58;;;;;;;;;;;19.60;66.70;;;;;;5128550;28;19945;-66
2022/08/24 05:56:30;;;;;;;;;;;19.60;66.60;;;;;;5129411;28;19972;-66
2022/08/24 05:58:57;;;;;;;;;;;19.60;66.90;;;;;;5130284;27;19926;-65
2022/08/24 06:01:25;;;;;;;;;;;19.60;67.10;;;;;;5124269;27;20359;-65
2022/08/24 06:03:53;;;;;;;;;;;19.70;66.80;;;;;;5120988;27;20010;-67
2022/08/24 06:06:20;;;;;;;;;;;19.70;67.00;;;;;;5122130;27;20050;-66
2022/08/24 06:08:48;;;;;;;;;;;19.70;67.00;;;;;;5128669;28;19928;-66
2022/08/24 06:11:20;;;;;;;;;;;19.70;66.80;;;;;;5127821;27;19973;-66
2022/08/24 06:13:48;;;;;;;;;;;19.80;66.80;;;;;;5128250;27;19925;-65
2022/08/24 06:16:15;;;;;;;;;;;19.80;66.80;;;;;;5130016;28;19925;-66
2022/08/24 06:18:41;;;;;;;;;;;19.90;66.80;;;;;;5128257;27;20323;-66
2022/08/24 06:21:10;;;;;;;;;;;19.90;66.70;;;;;;5129311;27;20003;-67
2022/08/24 06:23:38;;;;;;;;;;;20.00;66.60;;;;;;5130420;27;19926;-67
2022/08/24 06:28:52;;;;;;;;;;;20.10;66.10;;;;;;5129118;27;19929;-67
2022/08/24 06:31:20;;;;;;;;;;;20.20;66.20;;;;;;5124672;28;19951;-67
2022/08/24 06:33:47;;;;;;;;;;;20.30;65.90;;;;;;5127975;27;19941;-67
2022/08/24 06:36:14;;;;;;;;;;;20.30;65.70;;;;;;5129529;27;20269;-66
2022/08/24 06:38:42;;;;;;;;;;;20.40;65.50;;;;;;5130795;27;19920;-67
2022/08/24 06:41:09;;;;;;;;;;;20.50;65.50;;;;;;5130259;27;19955;-67
2022/08/24 06:43:39;;;;;;;;;;;20.60;65.20;;;;;;5128105;27;19920;-68
2022/08/24 06:46:14;;;;;;;;;;;20.80;65.10;;;;;;5126088;27;20377;-67
2022/08/24 06:48:45;;;;;;;;;;;20.90;64.80;;;;;;5126451;27;19920;-67
2022/08/24 06:51:15;;;;;;;;;;;21.00;64.80;;;;;;5127193;27;19926;-68
2022/08/24 06:53:43;;;;;;;;;;;21.10;64.80;;;;;;5121812;28;19926;-67
2022/08/24 06:56:11;;;;;;;;;;;21.20;64.70;;;;;;5131074;27;19926;-67
2022/08/24 06:58:38;;;;;;;;;;;21.30;64.60;;;;;;5123260;27;19971;-67
2022/08/24 07:01:10;;;;;;;;;;;21.50;64.40;;;;;;5127838;27;19919;-67
2022/08/24 07:03:38;;;;;;;;;;;21.60;64.70;;;;;;5132051;27;20312;-68
2022/08/24 07:06:31;;;;;;;;;;;21.70;64.50;;;;;;5106616;27;19920;-67
2022/08/24 07:09:00;;;;;;;;;;;22.00;63.80;;;;;;5122159;27;19939;-68
2022/08/24 07:11:27;;;;;;;;;;;22.10;64.10;;;;;;5131692;27;19923;-68
2022/08/24 07:13:54;;;;;;;;;;;22.20;63.90;;;;;;5135482;27;20376;-67
2022/08/24 07:16:21;;;;;;;;;;;22.30;63.50;;;;;;5130170;27;20081;-68
2022/08/24 07:18:53;;;;;;;;;;;22.50;63.10;;;;;;5131878;27;19919;-67
2022/08/24 07:21:21;;;;;;;;;;;22.60;62.50;;;;;;5127037;27;19927;-68
2022/08/24 07:23:53;;;;;;;;;;;22.80;62.50;;;;;;5128302;27;19927;-68
2022/08/24 07:26:21;;;;;;;;;;;22.90;61.90;;;;;;5125195;27;20288;-67
2022/08/24 07:28:49;;;;;;;;;;;23.00;61.40;;;;;;5133605;27;20373;-68
2022/08/24 07:31:16;;;;;;;;;;;23.20;61.00;;;;;;5128742;27;19930;-68
2022/08/24 07:33:54;;;;;;;;;;;23.30;60.80;;;;;;5133205;27;19919;-67
2022/08/24 07:36:20;;;;;;;;;;;23.50;60.10;;;;;;5127173;27;19923;-67
2022/08/24 07:38:47;;;;;;;;;;;23.70;59.70;;;;;;5129870;27;19920;-67
2022/08/24 07:41:15;;;;;;;;;;;23.80;59.50;;;;;;5132314;27;19919;-67
2022/08/24 07:43:42;;;;;;;;;;;23.90;59.00;;;;;;5131306;27;20270;-66
2022/08/24 07:46:09;;;;;;;;;;;24.10;58.80;;;;;;5132187;27;19926;-66
2022/08/24 07:48:36;;;;;;;;;;;24.10;58.30;;;;;;5131554;27;20395;-67
2022/08/24 07:51:08;;;;;;;;;;;24.20;58.40;;;;;;5133141;27;19919;-66
2022/08/24 07:53:35;;;;;;;;;;;24.30;57.80;;;;;;5146563;27;19927;-68
2022/08/24 07:56:02;;;;;;;;;;;24.30;57.40;;;;;;5128186;27;19920;-67
2022/08/24 07:58:31;;;;;;;;;;;24.50;56.60;;;;;;5129745;27;19983;-67
2022/08/24 08:00:58;;;;;;;;;;;24.60;56.00;;;;;;5120879;27;19919;-67
2022/08/24 08:03:25;;;;;;;;;;;24.70;55.60;;;;;;5127182;27;19919;-67
2022/08/24 08:05:55;;;;;;;;;;;24.80;55.60;;;;;;5131555;27;20501;-67
2022/08/24 08:08:24;;;;;;;;;;;24.90;54.80;;;;;;5131576;27;19926;-66
2022/08/24 08:10:52;;;;;;;;;;;25.10;54.90;;;;;;5131721;27;19926;-66
2022/08/24 08:13:19;;;;;;;;;;;25.20;54.70;;;;;;5129162;27;19934;-68
2022/08/24 08:15:47;;;;;;;;;;;25.30;53.70;;;;;;5123686;27;20006;-67
2022/08/24 08:18:15;;;;;;;;;;;25.40;53.40;;;;;;5131269;27;19926;-67
2022/08/24 08:20:44;;;;;;;;;;;25.50;53.60;;;;;;5126732;27;19968;-66
2022/08/24 08:26:14;;;;;;;;;;;25.80;52.40;;;;;;5126720;27;20292;-66
2022/08/24 08:29:01;;;;;;;;;;;25.80;52.60;;;;;;5123505;27;20280;-65
2022/08/24 08:31:30;;;;;;;;;;;25.90;52.30;;;;;;5127477;27;20026;-66
2022/08/24 08:33:57;;;;;;;;;;;25.90;52.50;;;;;;5114419;27;20361;-66
2022/08/24 08:36:24;;;;;;;;;;;26.00;52.10;;;;;;5132457;27;19923;-67
2022/08/24 08:38:51;;;;;;;;;;;26.10;51.70;;;;;;5131954;27;19926;-66
2022/08/24 08:41:46;;;;;;;;;;;26.10;51.80;;;;;;5131864;27;19979;-66
2022/08/24 08:44:26;;;;;;;;;;;26.20;51.60;;;;;;5082137;27;19963;-67
2022/08/24 08:46:59;;;;;;;;;;;26.20;51.20;;;;;;5129644;27;19923;-66
2022/08/24 08:49:54;;;;;;;;;;;26.30;51.70;;;;;;5127250;27;19926;-66
2022/08/24 08:52:28;;;;;;;;;;;26.30;51.00;;;;;;5131006;27;19919;-68
2022/08/24 08:55:04;;;;;;;;;;;26.40;51.20;;;;;;5131136;27;20269;-67
2022/08/24 08:57:39;;;;;;;;;;;26.40;50.90;;;;;;5131257;27;20309;-66
2022/08/24 09:00:10;;;;;;;;;;;26.40;50.20;;;;;;5125847;27;19924;-66
2022/08/24 09:03:03;;;;;;;;;;;26.40;50.20;;;;;;5126967;27;20410;-67
2022/08/24 09:05:41;;;;;;;;;;;26.30;50.30;;;;;;5128159;27;20293;-66
2022/08/24 09:08:16;;;;;;;;;;;26.40;49.80;;;;;;5127163;27;19919;-66
2022/08/24 09:10:50;;;;;;;;;;;26.40;49.70;;;;;;5124759;27;19919;-67
2022/08/24 09:13:25;;;;;;;;;;;26.50;49.60;;;;;;5126131;27;20014;-65
2022/08/24 09:16:07;;;;;;;;;;;26.40;49.20;;;;;;5130698;27;19919;-65
2022/08/24 09:18:44;;;;;;;;;;;26.60;49.40;;;;;;5130665;27;19919;-66
2022/08/24 09:21:23;;;;;;;;;;;26.60;49.20;;;;;;5131798;27;19919;-66
2022/08/24 09:23:55;;;;;;;;;;;26.70;48.50;;;;;;5116038;27;19965;-66
2022/08/24 09:26:25;;;;;;;;;;;26.80;48.40;;;;;;5130678;27;20377;-66
2022/08/24 09:28:58;;;;;;;;;;;26.90;48.20;;;;;;5131430;27;19919;-66
2022/08/24 09:31:39;;;;;;;;;;;27.00;48.20;;;;;;5126496;27;19945;-66
2022/08/24 09:34:08;;;;;;;;;;;27.10;48.00;;;;;;5131019;27;20334;-66
2022/08/24 09:36:43;;;;;;;;;;;27.20;47.50;;;;;;5131334;27;19950;-67
2022/08/24 09:39:16;;;;;;;;;;;27.20;47.70;;;;;;5129497;27;19926;-65
2022/08/24 09:41:50;;;;;;;;;;;27.30;47.20;;;;;;5129445;27;19919;-65
2022/08/24 09:44:23;;;;;;;;;;;27.40;47.30;;;;;;5130606;27;20199;-65
2022/08/24 09:47:17;;;;;;;;;;;27.50;46.70;;;;;;5133639;27;19923;-66
2022/08/24 09:49:58;;;;;;;;;;;27.60;46.60;;;;;;5073635;27;19931;-67
2022/08/24 09:52:36;;;;;;;;;;;27.70;46.50;;;;;;5131266;27;20368;-68
2022/08/24 09:55:18;;;;;;;;;;;27.80;46.20;;;;;;5131574;27;20223;-66
2022/08/24 09:57:54;;;;;;;;;;;27.90;46.10;;;;;;5112817;27;19920;-67
2022/08/24 10:00:23;;;;;;;;;;;27.90;45.70;;;;;;5123543;27;19956;-66
2022/08/24 10:02:59;;;;;;;;;;;28.00;45.90;;;;;;5127160;27;19930;-66
2022/08/24 10:05:40;;;;;;;;;;;28.00;45.70;;;;;;5123987;27;20061;-65
2022/08/24 10:08:14;;;;;;;;;;;28.10;45.80;;;;;;5127441;27;20412;-67
2022/08/24 10:10:47;;;;;;;;;;;28.10;45.50;;;;;;5122846;27;20399;-66
2022/08/24 10:13:19;;;;;;;;;;;28.20;45.00;;;;;;5128742;27;20012;-66
2022/08/24 10:15:48;;;;;;;;;;;28.20;45.00;;;;;;5129032;27;19930;-67
2022/08/24 10:18:26;;;;;;;;;;;28.20;44.80;;;;;;5135040;27;20270;-65
2022/08/24 10:21:02;;;;;;;;;;;28.30;44.80;;;;;;5126201;27;19919;-67
2022/08/24 10:23:38;;;;;;;;;;;28.40;44.80;;;;;;5131095;27;19919;-66
2022/08/24 10:26:10;;;;;;;;;;;28.50;44.70;;;;;;5128884;27;20369;-66
2022/08/24 10:28:51;;;;;;;;;;;28.60;44.00;;;;;;5120848;28;19933;-67
2022/08/24 10:31:18;;;;;;;;;;;28.70;44.20;;;;;;5121471;27;20310;-66
2022/08/24 10:33:54;;;;;;;;;;;28.80;43.80;;;;;;5127921;27;20358;-66
2022/08/24 10:36:38;;;;;;;;;;;28.80;43.70;;;;;;5134406;27;20357;-67
2022/08/24 10:42:07;;;;;;;;;;;29.00;43.00;;;;;;5120936;27;20296;-65
2022/08/24 10:44:44;;;;;;;;;;;29.10;42.80;;;;;;5131827;27;20627;-65
2022/08/24 10:47:15;;;;;;;;;;;29.30;41.90;;;;;;5134514;27;19919;-66
2022/08/24 10:50:03;;;;;;;;;;;29.50;41.50;;;;;;5131003;27;19923;-66
2022/08/24 10:52:48;;;;;;;;;;;29.60;41.10;;;;;;5133249;27;19926;-66
2022/08/24 10:55:18;;;;;;;;;;;29.80;41.30;;;;;;5135098;27;19919;-67
2022/08/24 10:57:49;;;;;;;;;;;29.90;41.30;;;;;;5134086;27;19923;-66
2022/08/24 11:00:19;;;;;;;;;;;29.90;41.50;;;;;;5125041;27;19919;-66
2022/08/24 11:02:46;;;;;;;;;;;30.00;40.70;;;;;;5126177;27;19919;-65
2022/08/24 11:05:14;;;;;;;;;;;30.10;40.60;;;;;;5130283;27;19919;-66
2022/08/24 11:07:57;;;;;;;;;;;30.20;40.40;;;;;;5129838;27;19920;-66
2022/08/24 11:10:25;;;;;;;;;;;30.20;40.40;;;;;;5132849;27;19920;-66
2022/08/24 11:12:52;;;;;;;;;;;30.30;39.60;;;;;;5135168;27;19919;-66
2022/08/24 11:15:20;;;;;;;;;;;30.40;39.20;;;;;;5131757;27;19927;-66
2022/08/24 11:17:53;;;;;;;;;;;30.40;38.70;;;;;;5128749;27;19919;-67
2022/08/24 11:20:25;;;;;;;;;;;30.50;37.80;;;;;;5130864;27;19934;-67
2022/08/24 11:23:00;;;;;;;;;;;30.50;38.50;;;;;;5134090;27;19919;-67
2022/08/24 11:25:27;;;;;;;;;;;30.40;37.70;;;;;;5128369;27;20289;-66
2022/08/24 11:27:59;;;;;;;;;;;30.50;37.20;;;;;;5133721;27;20255;-66
2022/08/24 11:30:28;;;;;;;;;;;30.50;37.20;;;;;;5134715;27;20006;-66
2022/08/24 11:32:57;;;;;;;;;;;30.50;37.00;;;;;;5128656;27;19931;-66
2022/08/24 11:35:25;;;;;;;;;;;30.50;36.70;;;;;;5131653;27;19920;-66
2022/08/24 11:37:53;;;;;;;;;;;30.50;36.90;;;;;;5133688;27;19931;-66
2022/08/24 11:40:24;;;;;;;;;;;30.50;36.90;;;;;;5135309;27;19951;-66
2022/08/24 11:43:10;;;;;;;;;;;30.70;36.80;;;;;;5130205;27;20342;-66
2022/08/24 11:45:40;;;;;;;;;;;30.80;35.70;;;;;;5129938;27;19920;-67
2022/08/24 11:48:14;;;;;;;;;;;30.80;36.90;;;;;;5133811;27;20399;-67
2022/08/24 11:50:44;;;;;;;;;;;30.80;36.30;;;;;;5126733;27;19919;-66
2022/08/24 11:53:17;;;;;;;;;;;30.90;35.70;;;;;;5133757;27;19971;-66
2022/08/24 11:55:49;;;;;;;;;;;31.00;35.80;;;;;;5128011;27;19926;-66
2022/08/24 11:58:18;;;;;;;;;;;31.00;34.70;;;;;;5132007;27;19919;-65
2022/08/24 12:00:46;;;;;;;;;;;31.10;34.60;;;;;;5124269;27;19926;-66
2022/08/24 12:03:23;;;;;;;;;;;31.10;34.00;;;;;;5131784;27;19926;-66
2022/08/24 12:05:53;;;;;;;;;;;31.10;34.10;;;;;;5121011;27;19929;-66
2022/08/24 12:08:25;;;;;;;;;;;31.20;33.90;;;;;;5130536;27;19931;-66
2022/08/24 12:10:58;;;;;;;;;;;31.20;34.10;;;;;;5131109;27;20281;-65
2022/08/24 12:13:31;;;;;;;;;;;31.20;33.40;;;;;;5129234;27;19923;-66
2022/08/24 12:16:02;;;;;;;;;;;31.30;33.60;;;;;;5133745;27;19954;-66
2022/08/24 12:18:34;;;;;;;;;;;31.30;33.70;;;;;;5132442;27;19926;-66
2022/08/24 12:21:00;;;;;;;;;;;31.30;33.50;;;;;;5132839;27;19927;-66
2022/08/24 12:23:31;;;;;;;;;;;31.30;34.10;;;;;;5126640;27;19920;-66
2022/08/24 12:26:01;;;;;;;;;;;31.20;34.20;;;;;;5127533;27;19919;-65
2022/08/24 12:28:30;;;;;;;;;;;31.10;34.40;;;;;;5129004;27;19919;-67
2022/08/24 12:31:00;;;;;;;;;;;31.20;34.20;;;;;;5128388;27;20262;-65
2022/08/24 12:33:29;;;;;;;;;;;31.20;33.30;;;;;;5127202;27;19920;-66
2022/08/24 12:35:57;;;;;;;;;;;31.30;34.30;;;;;;5132207;27;19933;-65
2022/08/24 12:38:26;;;;;;;;;;;31.20;35.20;;;;;;5129213;27;19919;-66
2022/08/24 12:40:55;;;;;;;;;;;31.10;35.40;;;;;;5131739;27;19927;-65
2022/08/24 12:43:27;;;;;;;;;;;31.10;34.20;;;;;;5132719;27;19933;-64
2022/08/24 12:45:55;;;;;;;;;;;31.20;34.00;;;;;;5131810;27;19920;-67
2022/08/24 12:48:23;;;;;;;;;;;31.30;33.70;;;;;;5130549;27;20014;-66
2022/08/24 12:50:59;;;;;;;;;;;31.20;34.40;;;;;;5122585;27;19923;-65
2022/08/24 12:53:34;;;;;;;;;;;31.10;35.40;;;;;;5131961;27;20387;-64
2022/08/24 12:56:06;;;;;;;;;;;30.90;35.80;;;;;;5127871;27;19946;-66
2022/08/24 12:58:51;;;;;;;;;;;30.80;36.40;;;;;;5119250;27;19920;-65
2022/08/24 13:01:19;;;;;;;;;;;30.70;35.30;;;;;;5128829;27;19919;-65
2022/08/24 13:03:47;;;;;;;;;;;31.00;34.60;;;;;;5132269;27;19927;-66
2022/08/24 13:06:18;;;;;;;;;;;31.00;34.80;;;;;;5129478;27;19946;-64
2022/08/24 13:08:46;;;;;;;;;;;31.00;35.10;;;;;;5131006;27;20410;-65
2022/08/24 13:11:15;;;;;;;;;;;31.00;34.70;;;;;;5130267;27;19919;-65
2022/08/24 13:13:44;;;;;;;;;;;31.10;34.10;;;;;;5133084;27;20283;-65
2022/08/24 13:16:32;;;;;;;;;;;31.10;34.00;;;;;;5129483;27;19932;-64
2022/08/24 13:19:14;;;;;;;;;;;31.10;33.40;;;;;;5129979;27;19925;-66
2022/08/24 13:21:44;;;;;;;;;;;31.20;32.90;;;;;;5128505;27;19923;-66
2022/08/24 13:24:38;;;;;;;;;;;31.20;32.90;;;;;;5129367;27;19946;-65
2022/08/24 13:27:19;;;;;;;;;;;31.20;32.90;;;;;;5081789;27;19926;-65
2022/08/24 13:29:51;;;;;;;;;;;31.10;33.60;;;;;;5131678;27;19964;-64
2022/08/24 13:32:24;;;;;;;;;;;31.00;33.30;;;;;;5130203;27;19919;-65
2022/08/24 13:34:51;;;;;;;;;;;31.00;33.50;;;;;;5128432;27;19927;-64
2022/08/24 13:37:21;;;;;;;;;;;30.80;33.70;;;;;;5129678;27;19919;-65
2022/08/24 13:40:04;;;;;;;;;;;30.80;34.30;;;;;;5132377;27;19920;-65
2022/08/24 13:42:40;;;;;;;;;;;30.80;33.80;;;;;;5130035;27;19920;-65
2022/08/24 13:45:25;;;;;;;;;;;30.80;33.40;;;;;;5125405;27;20364;-66
2022/08/24 13:48:01;;;;;;;;;;;30.70;34.70;;;;;;5128166;27;19923;-65
2022/08/24 13:50:30;;;;;;;;;;;30.60;34.40;;;;;;5129505;27;19972;-65
2022/08/24 13:53:13;;;;;;;;;;;30.60;34.10;;;;;;5125505;27;20402;-66
2022/08/24 13:55:45;;;;;;;;;;;30.60;33.40;;;;;;5135464;27;19949;-66
2022/08/24 13:58:19;;;;;;;;;;;30.70;33.40;;;;;;5126778;27;19923;-66
2022/08/24 14:00:48;;;;;;;;;;;30.70;33.50;;;;;;5126848;27;19923;-65
2022/08/24 14:03:45;;;;;;;;;;;30.70;33.20;;;;;;5129287;27;19919;-66
2022/08/24 14:06:23;;;;;;;;;;;30.70;32.70;;;;;;5063799;28;19928;-65
2022/08/24 14:08:55;;;;;;;;;;;30.70;32.80;;;;;;5124025;27;20399;-64
2022/08/24 14:11:34;;;;;;;;;;;30.60;32.90;;;;;;5132225;27;19930;-66
2022/08/24 14:14:04;;;;;;;;;;;30.60;33.30;;;;;;5134593;27;20000;-65
2022/08/24 14:19:39;;;;;;;;;;;30.50;33.10;;;;;;5135415;27;19938;-65
2022/08/24 14:22:15;;;;;;;;;;;30.50;33.20;;;;;;5134092;27;19919;-65
2022/08/24 14:24:44;;;;;;;;;;;30.40;33.20;;;;;;5134798;27;19959;-65
2022/08/24 14:27:31;;;;;;;;;;;30.40;33.30;;;;;;5130238;27;19919;-66
2022/08/24 14:30:34;;;;;;;;;;;30.30;33.30;;;;;;5131401;28;19977;-65
2022/08/24 14:33:07;;;;;;;;;;;30.30;33.50;;;;;;5128544;27;20001;-64
2022/08/24 14:35:36;;;;;;;;;;;30.30;34.00;;;;;;5128870;27;19920;-66
2022/08/24 14:38:21;;;;;;;;;;;30.30;33.60;;;;;;5133929;27;19919;-64
2022/08/24 14:40:57;;;;;;;;;;;30.30;34.10;;;;;;5135698;27;20331;-65
2022/08/24 14:43:26;;;;;;;;;;;30.30;33.00;;;;;;5131589;27;19920;-66
2022/08/24 14:45:55;;;;;;;;;;;30.20;33.20;;;;;;5130026;27;19920;-65
2022/08/24 14:48:26;;;;;;;;;;;30.20;33.30;;;;;;5132723;27;19949;-65
2022/08/24 14:50:58;;;;;;;;;;;30.20;33.70;;;;;;5133970;27;19919;-66